createdAt,value
2019-03-26T00:01:50.214Z,9.37
2019-03-26T00:04:21.099Z,8.33
2019-03-26T00:06:51.929Z,8.57
2019-03-26T00:09:22.757Z,7.93
2019-03-26T00:11:53.694Z,8.70
2019-03-26T00:14:24.071Z,9.97
2019-03-26T00:16:54.481Z,10.20
2019-03-26T00:19:25.189Z,10.47
2019-03-26T00:21:56.114Z,9.83
2019-03-26T00:24:26.963Z,11.03
2019-03-26T00:26:57.803Z,10.37
2019-03-26T00:29:28.641Z,11.23
2019-03-26T00:31:59.044Z,9.90
2019-03-26T00:34:29.801Z,10.10
2019-03-26T00:37:00.543Z,11.10
2019-03-26T00:39:31.376Z,10.20
2019-03-26T00:42:01.768Z,10.10
2019-03-26T00:44:32.672Z,11.50
2019-03-26T00:47:03.549Z,11.47
2019-03-26T00:49:34.310Z,10.30
2019-03-26T00:52:05.041Z,10.23
2019-03-26T00:54:35.467Z,9.40
2019-03-26T00:57:05.896Z,10.10
2019-03-26T00:59:36.639Z,12.23
2019-03-26T01:02:07.358Z,10.97
2019-03-26T01:04:38.093Z,11.97
2019-03-26T01:07:08.831Z,8.90
2019-03-26T01:09:39.660Z,12.33
2019-03-26T01:12:10.414Z,10.83
2019-03-26T01:14:41.352Z,13.47
2019-03-26T01:17:12.331Z,11.67
2019-03-26T01:19:43.740Z,13.97
2019-03-26T01:22:14.584Z,13.37
2019-03-26T01:24:45.810Z,13.57
2019-03-26T01:27:16.540Z,12.57
2019-03-26T01:29:47.285Z,12.73
2019-03-26T01:32:18.131Z,11.73
2019-03-26T01:34:48.957Z,12.33
2019-03-26T01:37:19.686Z,12.20
2019-03-26T01:39:50.434Z,12.60
2019-03-26T01:42:21.575Z,12.53
2019-03-26T01:44:52.299Z,12.50
2019-03-26T01:47:23.139Z,11.50
2019-03-26T01:49:53.869Z,10.77
2019-03-26T01:52:24.726Z,15.50
2019-03-26T01:54:55.114Z,14.67
2019-03-26T01:57:25.882Z,11.93
2019-03-26T01:59:56.729Z,12.40
2019-03-26T02:02:27.538Z,12.00
2019-03-26T02:05:00.398Z,11.73
2019-03-26T02:07:30.770Z,13.57
2019-03-26T02:10:01.532Z,12.67
2019-03-26T02:12:32.318Z,12.57
2019-03-26T02:15:03.067Z,12.87
2019-03-26T02:17:33.896Z,12.57
2019-03-26T02:20:06.722Z,10.80
2019-03-26T02:22:37.657Z,13.80
2019-03-26T02:25:08.459Z,12.37
2019-03-26T02:27:39.314Z,12.57
2019-03-26T02:30:09.867Z,11.63
2019-03-26T02:32:40.551Z,12.23
2019-03-26T02:35:18.168Z,12.03
2019-03-26T02:37:43.685Z,14.17
2019-03-26T02:40:14.490Z,11.87
2019-03-26T02:42:45.339Z,10.37
2019-03-26T02:45:15.813Z,12.03
2019-03-26T02:47:47.007Z,11.77
2019-03-26T02:50:17.463Z,11.47
2019-03-26T02:52:48.299Z,13.63
2019-03-26T02:55:19.110Z,10.83
2019-03-26T02:57:49.868Z,11.17
2019-03-26T03:00:20.690Z,10.47
2019-03-26T03:02:51.510Z,10.30
2019-03-26T03:05:34.957Z,9.10
2019-03-26T03:07:54.853Z,9.37
2019-03-26T03:10:25.585Z,11.27
2019-03-26T03:12:56.426Z,10.63
2019-03-26T03:15:27.221Z,10.90
2019-03-26T03:17:58.068Z,8.30
2019-03-26T03:20:28.803Z,8.90
2019-03-26T03:22:59.735Z,7.83
2019-03-26T03:25:30.725Z,9.93
2019-03-26T03:28:01.550Z,8.57
2019-03-26T03:30:32.544Z,7.67
2019-03-26T03:33:03.456Z,7.50
2019-03-26T03:35:50.724Z,8.40
2019-03-26T03:38:06.705Z,7.80
2019-03-26T03:40:37.668Z,8.73
2019-03-26T03:43:08.813Z,10.67
2019-03-26T03:45:40.296Z,9.27
2019-03-26T03:48:11.713Z,9.83
2019-03-26T03:50:44.900Z,8.33
2019-03-26T03:53:18.327Z,9.90
2019-03-26T03:55:50.879Z,7.47
2019-03-26T03:58:24.169Z,9.67
2019-03-26T04:00:55.005Z,8.93
2019-03-26T04:03:25.953Z,7.53
2019-03-26T04:06:08.761Z,7.33
2019-03-26T04:08:29.255Z,8.13
2019-03-26T04:11:00.200Z,6.67
2019-03-26T04:13:31.120Z,8.07
2019-03-26T04:16:01.959Z,7.93
2019-03-26T04:18:32.714Z,14.37
2019-03-26T04:21:03.544Z,9.73
2019-03-26T04:23:34.382Z,26.90
2019-03-26T04:26:05.140Z,16.33
2019-03-26T04:28:35.937Z,6.40
2019-03-26T04:31:06.873Z,7.27
2019-03-26T04:33:37.728Z,7.97
2019-03-26T04:36:24.123Z,8.20
2019-03-26T04:38:40.826Z,8.10
2019-03-26T04:41:11.739Z,8.53
2019-03-26T04:43:42.183Z,6.73
2019-03-26T04:46:12.722Z,8.87
2019-03-26T04:48:43.122Z,12.40
2019-03-26T04:51:13.991Z,11.83
2019-03-26T04:53:45.030Z,12.50
2019-03-26T04:56:15.794Z,9.90
2019-03-26T04:58:46.500Z,11.07
2019-03-26T05:01:17.333Z,12.83
2019-03-26T05:03:48.077Z,12.47
2019-03-26T05:06:18.901Z,10.80
2019-03-26T05:08:49.944Z,12.60
2019-03-26T05:11:20.778Z,13.73
2019-03-26T05:13:51.600Z,11.37
2019-03-26T05:16:22.378Z,12.67
2019-03-26T05:18:53.187Z,12.73
2019-03-26T05:21:23.918Z,15.23
2019-03-26T05:23:54.655Z,16.67
2019-03-26T05:26:25.510Z,17.83
2019-03-26T05:28:56.844Z,17.83
2019-03-26T05:31:27.316Z,19.17
2019-03-26T05:33:58.200Z,18.70
2019-03-26T05:36:29.039Z,18.80
2019-03-26T05:38:59.752Z,17.77
2019-03-26T05:41:30.547Z,24.83
2019-03-26T05:44:01.343Z,20.77
2019-03-26T05:46:32.074Z,21.80
2019-03-26T05:49:02.469Z,23.83
2019-03-26T05:51:33.237Z,22.20
2019-03-26T05:54:03.988Z,23.57
2019-03-26T05:56:34.917Z,21.13
2019-03-26T05:59:05.423Z,20.63
2019-03-26T06:01:36.336Z,23.80
2019-03-26T06:04:07.119Z,21.90
2019-03-26T06:06:37.945Z,22.93
2019-03-26T06:09:08.683Z,26.50
2019-03-26T06:11:39.693Z,21.67
2019-03-26T06:14:10.559Z,23.73
2019-03-26T06:16:41.417Z,23.70
2019-03-26T06:19:12.346Z,26.87
2019-03-26T06:21:43.069Z,24.13
2019-03-26T06:24:13.805Z,22.57
2019-03-26T06:26:44.535Z,22.83
2019-03-26T06:29:15.423Z,25.87
2019-03-26T06:31:46.822Z,21.53
2019-03-26T06:34:17.547Z,22.23
2019-03-26T06:36:48.293Z,22.73
2019-03-26T06:39:19.081Z,22.37
2019-03-26T06:41:49.886Z,23.17
2019-03-26T06:44:20.527Z,26.87
2019-03-26T06:46:51.329Z,19.93
2019-03-26T06:49:22.075Z,18.93
2019-03-26T06:51:53.146Z,18.93
2019-03-26T06:54:23.961Z,15.70
2019-03-26T06:56:54.969Z,17.23
2019-03-26T06:59:25.495Z,21.17
2019-03-26T07:01:56.862Z,17.90
2019-03-26T07:04:27.311Z,19.60
2019-03-26T07:06:58.152Z,16.83
2019-03-26T07:09:28.965Z,16.13
2019-03-26T07:11:59.511Z,17.23
2019-03-26T07:14:30.349Z,11.93
2019-03-26T07:17:01.307Z,13.23
2019-03-26T07:19:31.885Z,17.00
2019-03-26T07:22:02.783Z,14.37
2019-03-26T07:24:33.595Z,16.70
2019-03-26T07:27:04.443Z,14.23
2019-03-26T07:29:35.320Z,14.47
2019-03-26T07:32:06.169Z,13.47
2019-03-26T07:34:37.037Z,12.70
2019-03-26T07:37:07.871Z,16.63
2019-03-26T07:39:39.141Z,13.83
2019-03-26T07:42:10.265Z,14.53
2019-03-26T07:44:41.083Z,14.03
2019-03-26T07:47:11.932Z,13.37
2019-03-26T07:49:42.625Z,15.03
2019-03-26T07:52:15.617Z,12.77
2019-03-26T07:54:45.635Z,11.77
2019-03-26T07:57:16.364Z,9.27
2019-03-26T07:59:47.155Z,15.43
2019-03-26T08:02:18.047Z,13.97
2019-03-26T08:04:49.131Z,13.37
2019-03-26T08:07:19.560Z,16.63
2019-03-26T08:09:50.558Z,16.53
2019-03-26T08:12:21.442Z,13.50
2019-03-26T08:14:52.502Z,18.67
2019-03-26T08:17:23.339Z,15.67
2019-03-26T08:19:54.123Z,12.73
2019-03-26T08:22:24.878Z,14.27
2019-03-26T08:24:55.756Z,9.80
2019-03-26T08:27:26.658Z,8.70
2019-03-26T08:29:57.613Z,14.50
2019-03-26T08:32:29.964Z,13.13
2019-03-26T08:35:05.102Z,11.90
2019-03-26T08:37:35.934Z,9.10
2019-03-26T08:40:09.637Z,8.27
2019-03-26T08:42:40.374Z,8.47
2019-03-26T08:45:11.802Z,11.13
2019-03-26T08:47:42.186Z,11.83
2019-03-26T08:50:13.392Z,6.00
2019-03-26T08:52:45.822Z,10.30
2019-03-26T08:55:16.710Z,8.00
2019-03-26T08:57:47.556Z,6.77
2019-03-26T09:00:18.299Z,9.00
2019-03-26T09:02:49.104Z,11.83
2019-03-26T09:05:19.904Z,10.30
2019-03-26T09:07:50.783Z,7.53
2019-03-26T09:10:21.533Z,6.13
2019-03-26T09:12:52.363Z,12.73
2019-03-26T09:15:23.188Z,12.30
2019-03-26T09:17:53.930Z,12.53
2019-03-26T09:20:24.762Z,12.93
2019-03-26T09:22:55.524Z,7.27
2019-03-26T09:25:26.027Z,13.10
2019-03-26T09:27:56.758Z,12.07
2019-03-26T09:30:27.635Z,6.87
2019-03-26T09:32:58.535Z,8.43
2019-03-26T09:35:29.407Z,9.00
2019-03-26T09:38:00.124Z,10.90
2019-03-26T09:40:30.834Z,10.43
2019-03-26T09:43:01.231Z,6.77
2019-03-26T09:45:31.687Z,9.33
2019-03-26T09:48:02.076Z,6.90
2019-03-26T09:50:34.999Z,7.53
2019-03-26T09:53:05.652Z,9.97
2019-03-26T09:55:36.611Z,10.37
2019-03-26T09:58:07.513Z,10.60
2019-03-26T10:00:38.090Z,10.80
2019-03-26T10:03:08.989Z,11.07
2019-03-26T10:05:39.837Z,9.13
2019-03-26T10:08:10.707Z,9.50
2019-03-26T10:10:41.253Z,10.30
2019-03-26T10:13:12.064Z,7.70
2019-03-26T10:15:42.959Z,12.23
2019-03-26T10:18:13.802Z,7.23
2019-03-26T10:20:44.554Z,10.53
2019-03-26T10:23:15.365Z,7.83
2019-03-26T10:25:46.153Z,10.67
2019-03-26T10:28:16.961Z,8.77
2019-03-26T10:30:47.671Z,8.37
2019-03-26T10:33:18.430Z,10.10
2019-03-26T10:35:49.185Z,10.17
2019-03-26T10:38:19.999Z,7.47
2019-03-26T10:40:50.541Z,9.83
2019-03-26T10:43:21.385Z,7.97
2019-03-26T10:45:52.319Z,6.63
2019-03-26T10:48:23.037Z,7.67
2019-03-26T10:50:53.842Z,7.90
2019-03-26T10:53:26.260Z,8.07
2019-03-26T10:55:56.737Z,9.77
2019-03-26T10:58:27.637Z,7.00
2019-03-26T11:00:58.117Z,8.40
2019-03-26T11:03:28.866Z,10.67
2019-03-26T11:05:59.655Z,11.23
2019-03-26T11:08:30.556Z,10.47
2019-03-26T11:11:01.071Z,8.63
2019-03-26T11:13:32.422Z,8.43
2019-03-26T11:16:03.777Z,6.00
2019-03-26T11:18:34.599Z,6.53
2019-03-26T11:21:05.450Z,7.70
2019-03-26T11:23:36.273Z,8.07
2019-03-26T11:26:07.137Z,6.70
2019-03-26T11:28:37.957Z,6.33
2019-03-26T11:31:08.684Z,9.60
2019-03-26T11:33:39.519Z,8.30
2019-03-26T11:36:10.361Z,7.57
2019-03-26T11:38:41.097Z,7.23
2019-03-26T11:41:11.518Z,10.03
2019-03-26T11:43:42.261Z,6.47
2019-03-26T11:46:12.990Z,8.90
2019-03-26T11:48:43.714Z,7.30
2019-03-26T11:51:14.555Z,8.73
2019-03-26T11:53:45.287Z,5.43
2019-03-26T11:56:16.039Z,7.13
2019-03-26T11:58:46.796Z,7.00
2019-03-26T12:01:17.598Z,10.33
2019-03-26T12:03:48.368Z,9.57
2019-03-26T12:06:19.173Z,8.07
2019-03-26T12:08:49.563Z,6.57
2019-03-26T12:11:20.348Z,13.43
2019-03-26T12:13:51.356Z,10.77
2019-03-26T12:16:22.334Z,7.33
2019-03-26T12:18:53.199Z,9.83
2019-03-26T12:21:23.669Z,8.27
2019-03-26T12:23:54.066Z,13.13
2019-03-26T12:26:24.845Z,8.93
2019-03-26T12:28:55.248Z,10.90
2019-03-26T12:31:25.857Z,7.00
2019-03-26T12:33:56.528Z,7.90
2019-03-26T12:36:39.396Z,10.30
2019-03-26T12:38:59.508Z,10.10
2019-03-26T12:41:30.380Z,6.43
2019-03-26T12:44:01.136Z,6.33
2019-03-26T12:46:31.976Z,5.87
2019-03-26T12:49:02.668Z,7.07
2019-03-26T12:51:33.518Z,6.37
2019-03-26T12:54:04.662Z,7.20
2019-03-26T12:56:35.512Z,6.77
2019-03-26T12:59:06.360Z,6.77
2019-03-26T13:01:37.168Z,6.53
2019-03-26T13:04:12.782Z,6.73
2019-03-26T13:06:40.086Z,6.47
2019-03-26T13:09:11.126Z,5.80
2019-03-26T13:11:42.054Z,4.13
2019-03-26T13:14:12.783Z,4.40
2019-03-26T13:16:43.718Z,5.13
2019-03-26T13:19:14.471Z,4.17
2019-03-26T13:21:48.385Z,4.73
2019-03-26T13:24:19.195Z,3.50
2019-03-26T13:26:50.052Z,5.30
2019-03-26T13:29:20.946Z,3.53
2019-03-26T13:31:52.236Z,3.20
2019-03-26T13:34:23.058Z,2.90
2019-03-26T13:36:53.936Z,5.13
2019-03-26T13:39:26.070Z,5.37
2019-03-26T13:41:56.898Z,3.83
2019-03-26T13:44:27.953Z,4.57
2019-03-26T13:46:58.798Z,3.73
2019-03-26T13:49:29.646Z,5.63
2019-03-26T13:52:00.578Z,5.10
2019-03-26T13:54:30.962Z,3.93
2019-03-26T13:57:01.838Z,3.03
2019-03-26T13:59:32.337Z,5.80
2019-03-26T14:02:03.070Z,3.73
2019-03-26T14:04:34.212Z,3.80
2019-03-26T14:07:05.067Z,4.03
2019-03-26T14:09:35.996Z,3.80
2019-03-26T14:12:06.414Z,4.07
2019-03-26T14:14:37.192Z,3.90
2019-03-26T14:17:08.081Z,3.83
2019-03-26T14:19:39.182Z,4.77
2019-03-26T14:22:09.668Z,3.80
2019-03-26T14:24:40.395Z,7.47
2019-03-26T14:27:11.148Z,5.50
2019-03-26T14:29:42.091Z,5.30
2019-03-26T14:32:12.572Z,5.10
2019-03-26T14:34:43.503Z,5.33
2019-03-26T14:37:14.364Z,5.40
2019-03-26T14:39:45.090Z,9.30
2019-03-26T14:42:18.970Z,5.00
2019-03-26T14:44:50.146Z,6.80
2019-03-26T14:47:21.122Z,7.33
2019-03-26T14:49:51.646Z,5.70
2019-03-26T14:52:23.392Z,6.23
2019-03-26T14:54:55.642Z,4.17
2019-03-26T14:57:28.046Z,6.70
2019-03-26T14:59:58.929Z,4.70
2019-03-26T15:02:31.236Z,5.83
2019-03-26T15:05:02.094Z,6.73
2019-03-26T15:07:36.122Z,5.63
2019-03-26T15:10:10.307Z,6.13
2019-03-26T15:12:41.169Z,5.33
2019-03-26T15:15:12.266Z,6.33
2019-03-26T15:17:43.094Z,4.90
2019-03-26T15:20:14.254Z,5.13
2019-03-26T15:22:45.679Z,4.27
2019-03-26T15:25:16.539Z,4.90
2019-03-26T15:27:47.423Z,5.17
2019-03-26T15:30:22.436Z,5.30
2019-03-26T15:32:53.585Z,4.30
2019-03-26T15:35:26.339Z,4.17
2019-03-26T15:37:58.682Z,4.40
2019-03-26T15:40:30.698Z,4.07
2019-03-26T15:43:01.717Z,7.10
2019-03-26T15:45:32.555Z,5.17
2019-03-26T15:48:03.316Z,3.93
2019-03-26T15:50:39.222Z,6.30
2019-03-26T15:53:10.125Z,4.73
2019-03-26T15:55:41.223Z,5.43
2019-03-26T15:58:12.149Z,5.97
2019-03-26T16:00:44.598Z,4.33
2019-03-26T16:03:15.078Z,6.53
2019-03-26T16:05:45.857Z,4.90
2019-03-26T16:08:16.957Z,6.17
2019-03-26T16:10:49.448Z,6.57
2019-03-26T16:13:24.807Z,5.90
2019-03-26T16:15:55.604Z,6.23
2019-03-26T16:18:26.334Z,3.97
2019-03-26T16:20:57.208Z,6.27
2019-03-26T16:23:27.692Z,9.70
2019-03-26T16:26:00.143Z,4.40
2019-03-26T16:28:30.802Z,5.27
2019-03-26T16:31:01.752Z,5.67
2019-03-26T16:33:32.612Z,5.00
2019-03-26T16:36:04.623Z,6.17
2019-03-26T16:38:35.409Z,5.40
2019-03-26T16:41:06.337Z,6.53
2019-03-26T16:43:37.082Z,5.67
2019-03-26T16:46:08.010Z,4.00
2019-03-26T16:48:38.734Z,4.73
2019-03-26T16:51:09.500Z,7.07
2019-03-26T16:53:40.327Z,6.13
2019-03-26T16:56:11.302Z,6.50
2019-03-26T16:58:41.753Z,9.03
2019-03-26T17:01:12.497Z,4.60
2019-03-26T17:03:43.335Z,6.07
2019-03-26T17:06:14.381Z,4.10
2019-03-26T17:08:45.253Z,5.77
2019-03-26T17:11:16.165Z,5.17
2019-03-26T17:13:48.865Z,7.50
2019-03-26T17:16:19.675Z,6.90
2019-03-26T17:18:50.431Z,5.67
2019-03-26T17:21:21.663Z,6.17
2019-03-26T17:23:52.503Z,9.70
2019-03-26T17:26:23.499Z,6.10
2019-03-26T17:28:54.278Z,7.40
2019-03-26T17:31:25.125Z,7.03
2019-03-26T17:33:55.943Z,6.50
2019-03-26T17:36:26.695Z,6.90
2019-03-26T17:38:57.529Z,6.30
2019-03-26T17:41:28.289Z,6.00
2019-03-26T17:43:59.201Z,5.70
2019-03-26T17:46:30.143Z,7.27
2019-03-26T17:49:00.965Z,7.40
2019-03-26T17:51:31.810Z,8.40
2019-03-26T17:54:02.763Z,9.00
2019-03-26T17:56:33.615Z,8.13
2019-03-26T17:59:04.423Z,8.80
2019-03-26T18:01:35.309Z,6.33
2019-03-26T18:04:05.987Z,6.33
2019-03-26T18:06:36.825Z,4.27
2019-03-26T18:09:07.803Z,5.10
2019-03-26T18:11:40.037Z,7.83
2019-03-26T18:14:10.865Z,7.87
2019-03-26T18:16:41.638Z,7.63
2019-03-26T18:19:12.445Z,6.67
2019-03-26T18:21:51.548Z,6.43
2019-03-26T18:24:15.403Z,4.87
2019-03-26T18:26:46.178Z,6.90
2019-03-26T18:29:16.623Z,7.27
2019-03-26T18:31:47.337Z,6.83
2019-03-26T18:34:18.120Z,7.03
2019-03-26T18:36:48.919Z,5.97
2019-03-26T18:39:19.751Z,8.57
2019-03-26T18:41:50.237Z,7.30
2019-03-26T18:44:21.012Z,7.67
2019-03-26T18:46:51.739Z,7.27
2019-03-26T18:49:22.509Z,7.83
2019-03-26T18:51:53.325Z,6.47
2019-03-26T18:54:24.119Z,7.87
2019-03-26T18:56:54.989Z,6.60
2019-03-26T18:59:25.778Z,5.90
2019-03-26T19:01:56.325Z,7.80
2019-03-26T19:04:26.986Z,6.50
2019-03-26T19:06:57.751Z,5.73
2019-03-26T19:09:28.555Z,8.00
2019-03-26T19:11:59.409Z,6.80
2019-03-26T19:14:30.225Z,7.37
2019-03-26T19:17:00.996Z,7.37
2019-03-26T19:19:34.247Z,8.00
2019-03-26T19:22:05.138Z,7.90
2019-03-26T19:24:36.167Z,7.20
2019-03-26T19:27:06.980Z,9.07
2019-03-26T19:29:40.241Z,7.37
2019-03-26T19:32:11.115Z,6.60
2019-03-26T19:34:42.072Z,7.13
2019-03-26T19:37:12.902Z,9.17
2019-03-26T19:39:44.973Z,6.53
2019-03-26T19:42:16.028Z,9.87
2019-03-26T19:44:46.856Z,7.70
2019-03-26T19:47:17.802Z,10.30
2019-03-26T19:49:48.893Z,7.87
2019-03-26T19:52:19.752Z,8.50
2019-03-26T19:54:50.401Z,7.77
2019-03-26T19:57:21.276Z,10.10
2019-03-26T19:59:52.179Z,8.37
2019-03-26T20:02:23.214Z,5.67
2019-03-26T20:04:53.734Z,14.60
2019-03-26T20:07:24.685Z,8.00
2019-03-26T20:09:55.167Z,9.67
2019-03-26T20:12:26.036Z,7.20
2019-03-26T20:14:56.977Z,5.83
2019-03-26T20:17:27.476Z,11.50
2019-03-26T20:19:58.366Z,8.07
2019-03-26T20:22:29.224Z,7.67
2019-03-26T20:24:59.620Z,8.17
2019-03-26T20:27:30.558Z,6.53
2019-03-26T20:30:01.029Z,5.90
2019-03-26T20:32:32.102Z,7.50
2019-03-26T20:35:03.060Z,7.50
2019-03-26T20:37:34.035Z,6.27
2019-03-26T20:40:07.808Z,7.77
2019-03-26T20:42:40.838Z,8.77
2019-03-26T20:45:14.530Z,9.63
2019-03-26T20:47:45.333Z,6.97
2019-03-26T20:50:16.180Z,7.93
2019-03-26T20:52:47.109Z,9.27
2019-03-26T20:55:21.018Z,9.03
2019-03-26T20:57:51.955Z,8.27
2019-03-26T21:00:25.866Z,8.30
2019-03-26T21:02:56.315Z,8.57
2019-03-26T21:05:27.126Z,9.83
2019-03-26T21:07:57.960Z,10.47
2019-03-26T21:10:30.435Z,6.77
2019-03-26T21:13:01.273Z,9.67
2019-03-26T21:15:34.240Z,11.77
2019-03-26T21:18:05.696Z,13.23
2019-03-26T21:20:38.091Z,11.70
2019-03-26T21:23:09.062Z,11.07
2019-03-26T21:25:39.800Z,8.90
2019-03-26T21:28:12.253Z,9.10
2019-03-26T21:30:47.228Z,9.23
2019-03-26T21:33:18.649Z,8.83
2019-03-26T21:35:49.676Z,11.23
2019-03-26T21:38:20.290Z,8.90
2019-03-26T21:40:51.057Z,7.53
2019-03-26T21:43:21.888Z,10.13
2019-03-26T21:45:52.920Z,8.40
2019-03-26T21:48:23.740Z,11.80
2019-03-26T21:50:54.618Z,11.87
2019-03-26T21:53:26.959Z,8.93
2019-03-26T21:56:06.475Z,7.87
2019-03-26T21:58:30.451Z,10.60
2019-03-26T22:01:01.511Z,12.67
2019-03-26T22:03:32.556Z,13.07
2019-03-26T22:06:03.659Z,10.30
2019-03-26T22:08:34.548Z,9.80
2019-03-26T22:11:09.008Z,8.90
2019-03-26T22:13:45.951Z,9.87
2019-03-26T22:16:16.976Z,9.10
2019-03-26T22:18:48.019Z,8.13
2019-03-26T22:21:18.960Z,11.63
2019-03-26T22:23:49.968Z,9.13
2019-03-26T22:26:20.836Z,7.53
2019-03-26T22:28:51.834Z,7.90
2019-03-26T22:31:22.667Z,8.77
2019-03-26T22:34:00.158Z,12.77
2019-03-26T22:36:31.463Z,7.57
2019-03-26T22:39:02.630Z,8.00
2019-03-26T22:41:34.095Z,7.27
2019-03-26T22:44:05.092Z,8.40
2019-03-26T22:46:37.897Z,6.23
2019-03-26T22:49:10.440Z,8.10
2019-03-26T22:51:42.001Z,7.13
2019-03-26T22:54:13.006Z,7.00
2019-03-26T22:56:45.890Z,6.77
2019-03-26T22:59:16.682Z,6.70
2019-03-26T23:01:47.754Z,7.30
2019-03-26T23:04:20.194Z,11.90
2019-03-26T23:06:51.334Z,6.03
2019-03-26T23:09:22.138Z,9.00
2019-03-26T23:11:53.027Z,5.77
2019-03-26T23:14:27.583Z,6.60
2019-03-26T23:17:00.154Z,8.80
2019-03-26T23:19:30.925Z,8.27
2019-03-26T23:22:01.627Z,7.67
2019-03-26T23:24:32.549Z,7.37
2019-03-26T23:27:03.327Z,8.00
2019-03-26T23:29:34.176Z,7.43
2019-03-26T23:32:09.438Z,6.53
2019-03-26T23:34:42.521Z,10.90
2019-03-26T23:37:12.945Z,6.40
2019-03-26T23:39:45.308Z,8.63
2019-03-26T23:42:16.121Z,7.47
2019-03-26T23:44:57.785Z,7.17
2019-03-26T23:47:20.833Z,6.83
2019-03-26T23:49:55.961Z,8.47
2019-03-26T23:52:27.732Z,8.90
2019-03-26T23:54:59.060Z,7.90
2019-03-26T23:57:29.763Z,6.50
